Time;durP1;ratioP1;P1;durP2;ratioP2;P2;SDS_P1;SDS_P2;PMS_P1;PMS_P2;Temp;Humidity;BMP_temperature;BMP_pressure;BME280_temperature;BME280_humidity;BME280_pressure;Samples;Min_cycle;Max_cycle;Signal;HPM_P1;HPM_P2
2021/07/10 00:00:37;;;;;;;15.10;13.60;;;18.00;83.60;;;;;;5059813;28;21100;-42
2021/07/10 00:03:07;;;;;;;14.10;12.57;;;17.90;83.60;;;;;;5061807;28;20540;-42
2021/07/10 00:05:35;;;;;;;14.77;12.33;;;17.90;83.80;;;;;;5066826;28;20808;-42
2021/07/10 00:08:02;;;;;;;13.57;12.00;;;17.80;83.80;;;;;;5090397;28;20459;-42
2021/07/10 00:10:28;;;;;;;14.23;11.57;;;17.80;83.80;;;;;;5060078;28;20461;-42
2021/07/10 00:12:55;;;;;;;17.70;12.50;;;17.80;83.90;;;;;;5090626;28;20512;-42
2021/07/10 00:15:24;;;;;;;14.63;12.33;;;17.70;84.00;;;;;;5060974;28;20464;-42
2021/07/10 00:17:51;;;;;;;16.90;12.67;;;17.70;84.10;;;;;;5061458;28;20486;-43
2021/07/10 00:20:19;;;;;;;16.10;14.40;;;17.70;84.10;;;;;;5063875;28;20805;-42
2021/07/10 00:22:46;;;;;;;12.73;11.47;;;17.70;84.20;;;;;;5060813;28;20467;-42
2021/07/10 00:25:15;;;;;;;15.27;12.57;;;17.70;84.20;;;;;;5064648;28;20464;-42
2021/07/10 00:27:44;;;;;;;13.33;11.97;;;17.70;84.30;;;;;;5064356;28;20467;-43
2021/07/10 00:30:12;;;;;;;16.07;14.10;;;17.60;84.30;;;;;;5061660;28;20457;-42
2021/07/10 00:32:38;;;;;;;14.50;12.77;;;17.70;84.30;;;;;;5089422;28;20461;-42
2021/07/10 00:35:07;;;;;;;16.43;13.30;;;17.60;84.30;;;;;;5061201;28;20457;-42
2021/07/10 00:37:34;;;;;;;16.37;13.43;;;17.60;84.30;;;;;;5062101;28;20449;-42
2021/07/10 00:40:01;;;;;;;13.60;12.20;;;17.60;84.40;;;;;;5063654;28;20493;-42
2021/07/10 00:42:28;;;;;;;15.53;13.13;;;17.50;84.40;;;;;;5064435;28;20462;-42
2021/07/10 00:44:55;;;;;;;13.63;12.23;;;17.60;84.30;;;;;;5059473;28;20469;-42
2021/07/10 00:47:21;;;;;;;13.20;11.90;;;17.50;84.40;;;;;;5064620;28;20458;-42
2021/07/10 00:49:48;;;;;;;13.37;11.97;;;17.50;84.40;;;;;;5062037;28;20453;-42
2021/07/10 00:52:15;;;;;;;15.80;13.17;;;17.50;84.40;;;;;;5058308;28;20454;-42
2021/07/10 00:54:41;;;;;;;14.83;13.23;;;17.50;84.30;;;;;;5061421;28;20455;-42
2021/07/10 00:57:09;;;;;;;14.40;12.70;;;17.50;84.10;;;;;;5059617;28;20454;-42
2021/07/10 00:59:39;;;;;;;14.57;13.07;;;17.50;84.10;;;;;;5056965;28;20818;-42
2021/07/10 01:02:06;;;;;;;16.03;13.27;;;17.50;84.20;;;;;;5057438;28;20486;-42
2021/07/10 01:04:33;;;;;;;17.10;13.30;;;17.40;84.20;;;;;;5064634;28;20460;-42
2021/07/10 01:06:59;;;;;;;16.97;13.00;;;17.40;84.20;;;;;;5061075;28;20454;-42
2021/07/10 01:09:26;;;;;;;15.90;13.83;;;17.40;84.10;;;;;;5059643;28;20517;-42
2021/07/10 01:11:53;;;;;;;15.60;13.97;;;17.40;84.00;;;;;;5060802;28;20466;-42
2021/07/10 01:14:23;;;;;;;18.60;11.60;;;17.40;83.90;;;;;;5057444;28;20462;-42
2021/07/10 01:16:49;;;;;;;16.87;12.80;;;17.30;83.80;;;;;;5057661;28;20468;-42
2021/07/10 01:19:27;;;;;;;15.63;12.83;;;17.30;83.60;;;;;;5061007;28;20494;-42
2021/07/10 01:21:57;;;;;;;14.93;12.60;;;17.30;83.60;;;;;;5057161;28;20490;-42
2021/07/10 01:24:25;;;;;;;16.23;14.53;;;17.20;83.80;;;;;;5058631;28;20454;-42
2021/07/10 01:26:52;;;;;;;19.50;14.60;;;17.20;83.90;;;;;;5063587;28;20979;-42
2021/07/10 01:29:19;;;;;;;18.70;14.20;;;17.10;83.90;;;;;;5062849;28;20450;-42
2021/07/10 01:31:49;;;;;;;15.47;13.83;;;17.10;84.10;;;;;;5058854;28;20465;-42
2021/07/10 01:34:16;;;;;;;18.43;14.60;;;17.10;84.20;;;;;;5058428;28;20499;-42
2021/07/10 01:36:43;;;;;;;18.30;14.90;;;17.10;84.30;;;;;;5060777;28;20468;-42
2021/07/10 01:39:10;;;;;;;15.30;13.67;;;17.10;84.30;;;;;;5057406;28;20465;-42
2021/07/10 01:41:46;;;;;;;15.93;14.33;;;17.00;84.40;;;;;;5067056;28;20489;-42
2021/07/10 01:44:13;;;;;;;16.23;14.20;;;17.00;84.50;;;;;;5060827;28;20461;-42
2021/07/10 01:46:40;;;;;;;15.80;13.83;;;17.00;84.50;;;;;;5057279;28;21501;-42
2021/07/10 01:49:07;;;;;;;27.63;15.33;;;17.00;84.50;;;;;;5085329;28;20458;-42
2021/07/10 01:51:33;;;;;;;20.47;13.67;;;17.00;84.60;;;;;;5056422;28;20472;-42
2021/07/10 01:54:00;;;;;;;15.53;13.83;;;17.10;84.50;;;;;;5061270;28;20450;-42
2021/07/10 01:56:27;;;;;;;16.20;13.80;;;17.00;84.60;;;;;;5066715;28;20457;-42
2021/07/10 01:58:54;;;;;;;14.47;12.97;;;17.00;84.70;;;;;;5056519;28;20473;-42
2021/07/10 02:01:22;;;;;;;18.17;14.07;;;16.90;84.90;;;;;;5056993;28;20518;-42
2021/07/10 02:03:49;;;;;;;14.77;13.17;;;16.90;84.90;;;;;;5063722;28;20502;-42
2021/07/10 02:06:17;;;;;;;17.30;13.77;;;17.00;84.90;;;;;;5087236;28;20459;-42
2021/07/10 02:08:44;;;;;;;16.50;14.80;;;17.00;84.70;;;;;;5063826;28;20930;-42
2021/07/10 02:11:11;;;;;;;15.40;13.77;;;17.00;84.70;;;;;;5060991;28;20823;-42
2021/07/10 02:13:38;;;;;;;16.70;13.97;;;16.90;84.70;;;;;;5059966;28;20468;-42
2021/07/10 02:16:05;;;;;;;16.47;13.37;;;16.90;84.60;;;;;;5059162;28;20531;-42
2021/07/10 02:18:32;;;;;;;15.43;13.83;;;16.80;84.80;;;;;;5061177;28;20843;-42
2021/07/10 02:20:59;;;;;;;16.00;14.30;;;16.80;84.80;;;;;;5060964;28;20486;-42
2021/07/10 02:23:26;;;;;;;19.03;14.10;;;16.80;84.90;;;;;;5057475;28;20450;-42
2021/07/10 02:25:53;;;;;;;14.87;13.27;;;16.80;84.90;;;;;;5059413;28;20454;-42
2021/07/10 02:28:20;;;;;;;18.57;14.93;;;16.80;84.90;;;;;;5084213;28;20993;-42
2021/07/10 02:30:47;;;;;;;15.40;12.10;;;16.80;84.90;;;;;;5084993;28;20453;-42
2021/07/10 02:33:15;;;;;;;17.63;12.67;;;16.80;84.90;;;;;;5053872;28;20461;-42
2021/07/10 02:35:43;;;;;;;13.87;12.47;;;16.70;84.90;;;;;;5059457;28;20493;-42
2021/07/10 02:38:11;;;;;;;13.77;12.37;;;16.70;84.90;;;;;;5055329;28;20481;-42
2021/07/10 02:40:38;;;;;;;14.80;13.23;;;16.70;85.00;;;;;;5084983;28;20481;-42
2021/07/10 02:43:06;;;;;;;15.23;13.63;;;16.70;85.00;;;;;;5086208;28;20904;-42
2021/07/10 02:45:35;;;;;;;14.83;13.33;;;16.60;85.10;;;;;;5058033;28;20462;-42
2021/07/10 02:48:03;;;;;;;15.53;13.13;;;16.60;85.10;;;;;;5053716;28;20458;-42
2021/07/10 02:50:30;;;;;;;13.47;11.80;;;16.60;85.00;;;;;;5059885;28;21018;-42
2021/07/10 02:52:57;;;;;;;16.40;13.77;;;16.60;85.10;;;;;;5058111;28;20458;-42
2021/07/10 02:55:24;;;;;;;14.40;13.13;;;16.60;85.10;;;;;;5058918;28;20461;-43
2021/07/10 02:57:51;;;;;;;14.70;12.90;;;16.50;85.00;;;;;;5057488;28;20987;-44
2021/07/10 03:00:20;;;;;;;16.40;14.27;;;16.50;85.00;;;;;;5059729;28;21032;-44
2021/07/10 03:02:47;;;;;;;17.07;15.27;;;16.50;85.10;;;;;;5055171;28;20454;-44
2021/07/10 03:05:14;;;;;;;16.67;12.80;;;16.50;85.10;;;;;;5055571;28;20895;-44
2021/07/10 03:07:42;;;;;;;16.20;14.10;;;16.50;85.00;;;;;;5059710;28;20800;-44
2021/07/10 03:10:21;;;;;;;15.27;13.33;;;16.50;85.10;;;;;;5088404;28;20446;-44
2021/07/10 03:12:49;;;;;;;15.50;13.50;;;16.50;85.10;;;;;;5053809;28;20480;-44
2021/07/10 03:15:17;;;;;;;16.57;14.53;;;16.50;85.10;;;;;;5064718;28;20437;-44
2021/07/10 03:17:46;;;;;;;16.93;14.20;;;16.50;85.20;;;;;;5058824;28;20500;-44
2021/07/10 03:20:14;;;;;;;17.87;15.50;;;16.50;85.20;;;;;;5086536;28;20458;-44
2021/07/10 03:22:41;;;;;;;19.00;14.90;;;16.50;85.30;;;;;;5057327;28;20874;-44
2021/07/10 03:25:10;;;;;;;23.80;18.73;;;16.50;85.40;;;;;;5057647;28;20461;-44
2021/07/10 03:27:37;;;;;;;20.50;16.70;;;16.50;85.40;;;;;;5058186;28;20947;-44
2021/07/10 03:30:05;;;;;;;18.30;16.07;;;16.40;85.50;;;;;;5057843;28;20948;-44
2021/07/10 03:32:33;;;;;;;19.53;16.10;;;16.50;85.50;;;;;;5057521;28;20458;-44
2021/07/10 03:35:00;;;;;;;17.57;15.47;;;16.50;85.50;;;;;;5054577;28;20983;-44
2021/07/10 03:37:27;;;;;;;18.77;15.53;;;16.50;85.40;;;;;;5060087;28;20457;-44
2021/07/10 03:39:53;;;;;;;19.23;15.67;;;16.50;85.30;;;;;;5054754;28;20629;-44
2021/07/10 03:42:20;;;;;;;19.20;15.70;;;16.50;85.30;;;;;;5090560;28;20613;-44
2021/07/10 03:44:47;;;;;;;19.40;15.73;;;16.40;85.20;;;;;;5054988;28;20457;-44
2021/07/10 03:47:15;;;;;;;18.60;15.90;;;16.40;85.30;;;;;;5057518;28;21278;-44
2021/07/10 03:49:41;;;;;;;18.93;15.27;;;16.40;85.30;;;;;;5060809;28;20453;-43
2021/07/10 03:52:08;;;;;;;23.40;15.93;;;16.40;85.30;;;;;;5058350;28;20518;-44
2021/07/10 03:54:35;;;;;;;19.90;14.37;;;16.40;85.20;;;;;;5055072;28;20458;-43
2021/07/10 03:57:02;;;;;;;18.47;13.63;;;16.40;85.10;;;;;;5060298;28;20465;-44
2021/07/10 03:59:29;;;;;;;18.90;15.43;;;16.40;85.10;;;;;;5084910;28;20446;-44
2021/07/10 04:01:55;;;;;;;17.90;16.00;;;16.40;85.20;;;;;;5057707;28;20486;-44
2021/07/10 04:04:22;;;;;;;20.37;16.10;;;16.40;85.30;;;;;;5060658;28;20908;-44
2021/07/10 04:06:49;;;;;;;17.20;14.37;;;16.40;85.20;;;;;;5052979;28;20910;-44
2021/07/10 04:09:18;;;;;;;18.87;14.13;;;16.40;85.20;;;;;;5061178;28;20454;-44
2021/07/10 04:11:45;;;;;;;16.00;14.37;;;16.40;85.00;;;;;;5057018;28;20462;-44
2021/07/10 04:14:12;;;;;;;20.37;14.70;;;16.40;84.70;;;;;;5059605;28;20459;-44
2021/07/10 04:16:38;;;;;;;15.87;13.27;;;16.40;84.60;;;;;;5058418;28;20457;-44
2021/07/10 04:19:06;;;;;;;19.30;13.37;;;16.40;84.50;;;;;;5086149;28;20489;-44
2021/07/10 04:21:32;;;;;;;24.60;15.40;;;16.40;84.50;;;;;;5057981;28;20835;-43
2021/07/10 04:23:59;;;;;;;23.43;14.67;;;16.30;84.60;;;;;;5061625;28;20453;-44
2021/07/10 04:26:26;;;;;;;18.50;15.70;;;16.30;84.60;;;;;;5058676;28;20468;-44
2021/07/10 04:28:52;;;;;;;19.37;15.13;;;16.30;84.60;;;;;;5086903;28;20992;-44
2021/07/10 04:31:20;;;;;;;16.97;15.03;;;16.30;84.70;;;;;;5061819;28;20462;-46
2021/07/10 04:33:47;;;;;;;23.30;16.00;;;16.30;84.70;;;;;;5056740;28;20461;-44
2021/07/10 04:36:14;;;;;;;17.37;14.27;;;16.30;84.80;;;;;;5059793;28;20458;-44
2021/07/10 04:38:41;;;;;;;19.27;14.60;;;16.30;84.90;;;;;;5058664;28;20496;-44
2021/07/10 04:41:08;;;;;;;18.07;15.87;;;16.30;85.00;;;;;;5060940;28;20995;-44
2021/07/10 04:43:35;;;;;;;18.80;14.63;;;16.30;85.00;;;;;;5057159;28;20819;-44
2021/07/10 04:46:03;;;;;;;18.87;15.13;;;16.40;85.20;;;;;;5087095;27;20823;-43
2021/07/10 04:48:30;;;;;;;18.23;15.43;;;16.40;85.30;;;;;;5059789;28;20450;-44
2021/07/10 04:50:56;;;;;;;20.60;16.23;;;16.40;85.30;;;;;;5086250;28;20828;-44
2021/07/10 04:53:23;;;;;;;18.00;15.33;;;16.40;85.40;;;;;;5060563;28;20803;-46
2021/07/10 04:55:50;;;;;;;16.20;14.50;;;16.40;85.60;;;;;;5060346;28;20820;-44
2021/07/10 04:58:16;;;;;;;20.47;16.80;;;16.50;85.70;;;;;;5060666;28;20458;-44
2021/07/10 05:00:44;;;;;;;19.23;17.27;;;16.50;85.90;;;;;;5058724;28;20472;-44
2021/07/10 05:03:12;;;;;;;20.87;16.80;;;16.60;86.00;;;;;;5058469;28;20485;-44
2021/07/10 05:05:39;;;;;;;18.03;16.20;;;16.60;86.10;;;;;;5057916;28;20462;-44
2021/07/10 05:08:07;;;;;;;17.40;15.60;;;16.70;86.20;;;;;;5054932;28;20923;-43
2021/07/10 05:10:34;;;;;;;23.10;16.10;;;16.70;86.20;;;;;;5061807;28;20708;-44
2021/07/10 05:13:02;;;;;;;19.53;16.60;;;16.70;86.40;;;;;;5057876;28;20469;-44
2021/07/10 05:15:29;;;;;;;23.77;18.63;;;16.70;86.40;;;;;;5056968;28;20490;-44
2021/07/10 05:17:56;;;;;;;25.70;20.27;;;16.80;86.50;;;;;;5055882;28;20486;-44
2021/07/10 05:20:22;;;;;;;21.27;18.70;;;16.80;86.60;;;;;;5056609;28;20486;-44
2021/07/10 05:22:49;;;;;;;24.10;19.70;;;16.80;86.70;;;;;;5084979;28;20477;-44
2021/07/10 05:25:16;;;;;;;30.13;21.90;;;16.80;86.80;;;;;;5057344;28;20457;-44
2021/07/10 05:27:43;;;;;;;26.17;21.30;;;16.90;86.90;;;;;;5058098;28;20461;-44
2021/07/10 05:30:15;;;;;;;29.80;21.80;;;16.90;87.00;;;;;;5061409;28;20814;-44
2021/07/10 05:32:42;;;;;;;31.27;23.70;;;17.00;87.10;;;;;;5062914;28;20473;-44
2021/07/10 05:35:11;;;;;;;36.27;26.27;;;17.00;87.20;;;;;;5059964;28;20466;-44
2021/07/10 05:37:38;;;;;;;39.00;25.63;;;17.10;87.20;;;;;;5059139;28;20955;-44
2021/07/10 05:40:06;;;;;;;32.90;24.93;;;17.10;87.40;;;;;;5056945;28;20452;-44
2021/07/10 05:42:32;;;;;;;40.40;27.20;;;17.10;87.60;;;;;;5088656;28;20496;-44
2021/07/10 05:44:59;;;;;;;35.30;25.33;;;17.20;87.60;;;;;;5060202;28;20462;-44
2021/07/10 05:47:26;;;;;;;34.13;25.33;;;17.20;87.70;;;;;;5060317;28;20462;-44
2021/07/10 05:49:53;;;;;;;35.40;26.70;;;17.20;87.80;;;;;;5064931;28;20549;-44
2021/07/10 05:52:19;;;;;;;37.63;26.60;;;17.30;88.00;;;;;;5058621;28;20462;-44
2021/07/10 05:54:46;;;;;;;36.20;26.80;;;17.30;87.90;;;;;;5062187;28;20450;-44
2021/07/10 05:57:13;;;;;;;36.50;27.83;;;17.30;87.90;;;;;;5059415;28;21911;-44
2021/07/10 05:59:39;;;;;;;38.90;27.40;;;17.30;88.00;;;;;;5060352;28;20544;-44
2021/07/10 06:02:06;;;;;;;37.03;28.00;;;17.30;88.10;;;;;;5059877;28;20481;-44
2021/07/10 06:04:36;;;;;;;37.60;26.80;;;17.40;88.10;;;;;;5060333;28;20465;-44
2021/07/10 06:07:06;;;;;;;41.10;27.87;;;17.40;88.00;;;;;;5059209;28;20450;-44
2021/07/10 06:09:36;;;;;;;38.00;27.60;;;17.50;88.00;;;;;;5058006;28;20447;-44
2021/07/10 06:12:03;;;;;;;44.30;28.67;;;17.40;88.10;;;;;;5056562;28;20465;-44
2021/07/10 06:14:30;;;;;;;42.50;28.97;;;17.40;88.10;;;;;;5063276;28;20470;-44
2021/07/10 06:16:57;;;;;;;43.90;28.70;;;17.50;87.90;;;;;;5085191;28;20458;-44
2021/07/10 06:19:25;;;;;;;51.57;30.07;;;17.50;87.70;;;;;;5057435;28;21022;-44
2021/07/10 06:21:52;;;;;;;43.47;29.40;;;17.60;87.90;;;;;;5056527;28;20478;-44
2021/07/10 06:24:19;;;;;;;39.47;28.30;;;17.60;87.90;;;;;;5055060;28;20466;-44
2021/07/10 06:26:46;;;;;;;46.10;31.80;;;17.60;87.80;;;;;;5057344;28;20452;-44
2021/07/10 06:29:16;;;;;;;45.80;30.10;;;17.50;88.10;;;;;;5055567;28;20450;-44
2021/07/10 06:31:43;;;;;;;47.73;31.87;;;17.50;88.30;;;;;;5084272;28;20497;-44
2021/07/10 06:34:10;;;;;;;49.57;33.10;;;17.50;88.40;;;;;;5055579;28;20545;-44
2021/07/10 06:36:38;;;;;;;50.60;32.70;;;17.60;88.50;;;;;;5075411;28;20466;-44
2021/07/10 06:39:05;;;;;;;54.70;32.60;;;17.60;88.60;;;;;;5055966;28;20982;-44
2021/07/10 06:41:32;;;;;;;49.80;33.17;;;17.60;88.40;;;;;;5056876;28;20818;-44
2021/07/10 06:44:00;;;;;;;51.57;31.93;;;17.70;88.40;;;;;;5054763;28;20457;-44
2021/07/10 06:46:27;;;;;;;53.97;33.83;;;17.70;88.40;;;;;;5057725;28;20997;-44
2021/07/10 06:48:54;;;;;;;56.27;35.57;;;17.70;88.40;;;;;;5086956;28;20496;-44
2021/07/10 06:51:21;;;;;;;49.93;31.80;;;17.70;88.40;;;;;;5053747;28;20462;-44
2021/07/10 06:53:48;;;;;;;53.27;34.00;;;17.80;88.30;;;;;;5054649;28;20456;-44
2021/07/10 06:56:15;;;;;;;56.20;32.80;;;17.80;88.30;;;;;;5061939;28;20477;-45
2021/07/10 06:58:41;;;;;;;54.33;35.50;;;17.80;88.30;;;;;;5086085;28;20466;-44
2021/07/10 07:01:08;;;;;;;53.00;33.23;;;17.80;88.40;;;;;;5058438;28;20456;-45
2021/07/10 07:03:35;;;;;;;56.47;36.13;;;17.80;88.40;;;;;;5060186;28;20502;-45
2021/07/10 07:06:02;;;;;;;56.07;35.77;;;17.90;88.40;;;;;;5089196;28;20468;-45
2021/07/10 07:08:28;;;;;;;56.13;33.60;;;17.90;88.30;;;;;;5061784;28;20461;-45
2021/07/10 07:10:55;;;;;;;56.23;34.30;;;18.00;88.30;;;;;;5061614;28;20457;-44
2021/07/10 07:13:22;;;;;;;57.57;34.07;;;18.00;88.10;;;;;;5057790;28;20817;-45
2021/07/10 07:15:49;;;;;;;55.40;35.83;;;18.00;88.00;;;;;;5059376;28;20819;-45
2021/07/10 07:18:15;;;;;;;52.50;34.40;;;18.10;88.00;;;;;;5058853;28;20492;-44
2021/07/10 07:21:02;;;;;;;54.87;35.20;;;18.10;87.90;;;;;;5062664;28;20466;-45
2021/07/10 07:23:30;;;;;;;52.23;34.30;;;18.20;87.50;;;;;;5060329;28;20500;-44
2021/07/10 07:25:57;;;;;;;52.40;33.63;;;18.30;87.40;;;;;;5060489;28;20462;-45
2021/07/10 07:28:24;;;;;;;48.20;32.70;;;18.30;87.30;;;;;;5062651;28;20802;-45
2021/07/10 07:30:51;;;;;;;56.77;35.30;;;18.30;87.20;;;;;;5065525;28;20441;-45
2021/07/10 07:33:18;;;;;;;50.77;34.73;;;18.40;86.90;;;;;;5067978;28;20461;-45
2021/07/10 07:35:45;;;;;;;50.70;32.40;;;18.50;86.50;;;;;;5061781;28;20476;-45
2021/07/10 07:38:11;;;;;;;44.73;31.47;;;18.50;86.50;;;;;;5062051;28;20504;-45
2021/07/10 07:40:38;;;;;;;41.57;30.93;;;18.60;85.50;;;;;;5066252;28;20463;-45
2021/07/10 07:43:05;;;;;;;46.23;31.63;;;18.70;85.60;;;;;;5063413;28;20489;-45
2021/07/10 07:45:32;;;;;;;42.20;31.70;;;18.70;85.50;;;;;;5063436;28;20446;-45
2021/07/10 07:47:59;;;;;;;45.80;30.97;;;18.80;85.40;;;;;;5064297;28;20451;-45
2021/07/10 07:50:26;;;;;;;42.13;30.00;;;18.90;85.10;;;;;;5057983;28;20465;-44
2021/07/10 07:52:52;;;;;;;41.27;30.60;;;18.90;84.60;;;;;;5089250;28;20936;-45
2021/07/10 07:55:19;;;;;;;41.23;30.20;;;19.00;84.30;;;;;;5063384;28;20837;-45
2021/07/10 07:57:46;;;;;;;44.13;32.70;;;19.00;83.70;;;;;;5060858;28;20457;-44
2021/07/10 08:00:19;;;;;;;42.43;30.60;;;19.00;83.40;;;;;;5064901;28;20752;-45
2021/07/10 08:02:47;;;;;;;40.30;30.17;;;19.10;83.60;;;;;;5062537;28;20492;-45
2021/07/10 08:05:15;;;;;;;44.20;31.60;;;19.10;83.70;;;;;;5061584;28;20464;-45
2021/07/10 08:07:42;;;;;;;46.30;31.30;;;19.20;83.70;;;;;;5090453;28;20832;-45
2021/07/10 08:10:12;;;;;;;40.43;29.93;;;19.20;83.50;;;;;;5063221;28;20460;-45
2021/07/10 08:12:41;;;;;;;42.40;29.60;;;19.30;83.80;;;;;;5064644;28;20476;-45
2021/07/10 08:15:09;;;;;;;39.57;27.97;;;19.50;83.40;;;;;;5061220;28;20465;-45
2021/07/10 08:17:41;;;;;;;42.00;29.60;;;19.70;82.70;;;;;;5086457;28;20489;-45
2021/07/10 08:20:09;;;;;;;40.50;29.70;;;19.80;82.20;;;;;;5091409;28;20881;-45
2021/07/10 08:22:36;;;;;;;38.60;28.97;;;20.00;81.80;;;;;;5067373;28;20514;-44
2021/07/10 08:25:04;;;;;;;46.10;30.17;;;20.20;81.00;;;;;;5060320;28;20454;-45
2021/07/10 08:27:32;;;;;;;40.47;28.00;;;20.30;80.30;;;;;;5066302;28;20537;-45
2021/07/10 08:29:59;;;;;;;39.47;29.50;;;20.50;80.00;;;;;;5063402;28;20457;-45
2021/07/10 08:32:25;;;;;;;45.00;31.87;;;20.70;79.50;;;;;;5062056;28;20808;-45
2021/07/10 08:34:52;;;;;;;42.43;28.93;;;20.90;79.10;;;;;;5060607;28;20549;-45
2021/07/10 08:37:21;;;;;;;40.27;30.20;;;21.20;77.90;;;;;;5062294;28;20462;-45
2021/07/10 08:39:48;;;;;;;37.57;29.63;;;21.40;77.30;;;;;;5061865;28;20460;-45
2021/07/10 08:42:15;;;;;;;39.43;29.60;;;21.50;77.00;;;;;;5061463;28;20496;-45
2021/07/10 08:44:45;;;;;;;37.87;28.37;;;21.60;76.10;;;;;;5065242;28;20450;-45
2021/07/10 08:47:14;;;;;;;40.23;28.27;;;21.70;75.90;;;;;;5090160;28;20458;-46
2021/07/10 08:49:41;;;;;;;33.93;27.33;;;21.80;75.60;;;;;;5063285;28;20869;-45
2021/07/10 08:52:08;;;;;;;44.83;27.70;;;22.00;74.50;;;;;;5061897;28;20825;-46
2021/07/10 08:54:35;;;;;;;38.03;27.97;;;22.20;74.10;;;;;;5064612;28;20448;-45
2021/07/10 08:57:03;;;;;;;42.73;31.03;;;22.40;73.30;;;;;;5065017;28;20441;-45
2021/07/10 08:59:30;;;;;;;40.17;29.07;;;22.50;72.80;;;;;;5063304;28;20449;-46
2021/07/10 09:01:57;;;;;;;36.00;27.23;;;22.60;72.50;;;;;;5061857;28;20441;-46
2021/07/10 09:04:25;;;;;;;37.80;24.97;;;22.70;72.20;;;;;;5067182;28;20805;-46
2021/07/10 09:06:52;;;;;;;33.60;23.57;;;22.80;71.00;;;;;;5059876;28;20765;-46
2021/07/10 09:09:19;;;;;;;35.20;25.63;;;22.80;70.60;;;;;;5067406;28;20440;-45
2021/07/10 09:12:04;;;;;;;30.70;22.67;;;22.90;70.30;;;;;;5093566;28;20441;-46
2021/07/10 09:14:31;;;;;;;33.87;23.93;;;23.00;70.30;;;;;;5061073;28;20456;-46
2021/07/10 09:17:15;;;;;;;35.70;24.00;;;23.10;69.70;;;;;;5059828;28;20465;-46
2021/07/10 09:19:42;;;;;;;29.67;23.13;;;23.10;69.70;;;;;;5062411;28;20469;-46
2021/07/10 09:22:09;;;;;;;31.40;24.37;;;23.30;69.60;;;;;;5063010;28;20457;-46
2021/07/10 09:24:38;;;;;;;33.60;25.70;;;23.40;69.50;;;;;;5066679;28;20452;-45
2021/07/10 09:27:07;;;;;;;33.10;23.67;;;23.50;68.90;;;;;;5064933;28;20434;-46
2021/07/10 09:29:45;;;;;;;27.70;21.83;;;23.70;68.10;;;;;;5064872;28;21751;-46
2021/07/10 09:32:16;;;;;;;25.27;21.57;;;23.90;68.20;;;;;;5059421;28;20818;-46
2021/07/10 09:34:50;;;;;;;23.30;20.07;;;24.20;66.80;;;;;;5093294;28;20806;-46
2021/07/10 09:37:20;;;;;;;24.27;18.73;;;24.50;66.00;;;;;;5060724;28;20453;-46
2021/07/10 09:40:11;;;;;;;27.23;20.87;;;24.70;65.10;;;;;;5083358;28;20847;-46
2021/07/10 09:42:40;;;;;;;31.27;19.60;;;25.00;64.50;;;;;;5062698;28;20504;-46
2021/07/10 09:45:14;;;;;;;41.07;20.73;;;25.10;64.20;;;;;;5058083;28;20454;-46
2021/07/10 09:47:42;;;;;;;20.60;16.50;;;25.20;64.30;;;;;;5060049;28;20777;-46
2021/07/10 09:50:20;;;;;;;19.77;16.23;;;25.30;63.00;;;;;;5062655;28;20453;-46
2021/07/10 09:52:50;;;;;;;20.57;16.77;;;25.40;63.40;;;;;;5061876;28;20484;-46
2021/07/10 09:55:18;;;;;;;19.20;16.23;;;25.40;63.50;;;;;;5061980;28;20836;-46
2021/07/10 09:57:46;;;;;;;107.37;27.53;;;25.40;63.00;;;;;;5062206;28;20445;-46
2021/07/10 10:00:19;;;;;;;24.53;17.13;;;25.30;62.30;;;;;;5061257;28;20438;-46
2021/07/10 10:02:52;;;;;;;18.87;15.20;;;25.20;62.40;;;;;;5057442;28;20830;-46
2021/07/10 10:05:21;;;;;;;15.90;14.20;;;25.20;62.90;;;;;;5062960;28;20459;-46
2021/07/10 10:07:49;;;;;;;15.63;13.43;;;25.10;63.70;;;;;;5060484;28;20463;-47
2021/07/10 10:10:28;;;;;;;18.00;14.67;;;25.00;63.90;;;;;;5059504;28;20458;-46
2021/07/10 10:13:04;;;;;;;15.60;13.97;;;25.00;63.60;;;;;;5058035;28;20471;-46
2021/07/10 10:15:33;;;;;;;14.63;11.63;;;24.90;63.10;;;;;;5064301;28;20573;-46
2021/07/10 10:18:00;;;;;;;11.00;9.70;;;24.80;63.10;;;;;;5060563;28;20538;-46
2021/07/10 10:20:27;;;;;;;11.73;9.10;;;24.80;60.50;;;;;;5062327;28;20482;-46
2021/07/10 10:22:55;;;;;;;11.90;9.60;;;24.60;60.40;;;;;;5053762;28;21021;-47
2021/07/10 10:25:23;;;;;;;13.00;11.60;;;24.60;60.70;;;;;;5060826;28;20464;-46
2021/07/10 10:27:51;;;;;;;11.07;9.83;;;24.40;60.70;;;;;;5059018;28;20492;-47
2021/07/10 10:30:19;;;;;;;12.27;11.00;;;24.40;61.00;;;;;;5058930;28;20962;-46
2021/07/10 10:32:47;;;;;;;10.60;9.50;;;24.40;62.50;;;;;;5058751;28;20461;-46
2021/07/10 10:35:15;;;;;;;10.53;9.47;;;24.40;62.40;;;;;;5087570;28;20446;-46
2021/07/10 10:37:42;;;;;;;10.40;9.30;;;24.30;61.00;;;;;;5088477;28;20456;-46
2021/07/10 10:40:16;;;;;;;10.03;8.90;;;24.30;61.30;;;;;;5060671;28;20475;-46
2021/07/10 10:42:44;;;;;;;8.07;7.27;;;24.30;61.90;;;;;;5056605;28;20493;-46
2021/07/10 10:45:12;;;;;;;8.20;7.40;;;24.30;61.50;;;;;;5059264;28;20457;-46
2021/07/10 10:47:49;;;;;;;8.63;6.13;;;24.30;61.20;;;;;;5059588;28;20441;-46
2021/07/10 10:50:26;;;;;;;8.10;7.27;;;24.30;60.30;;;;;;5061073;28;20462;-46
2021/07/10 10:52:56;;;;;;;7.70;7.00;;;24.30;59.40;;;;;;5057224;28;20459;-46
2021/07/10 10:55:27;;;;;;;9.07;8.10;;;24.30;60.00;;;;;;5062377;28;20445;-46
2021/07/10 10:58:22;;;;;;;8.70;7.37;;;24.30;60.80;;;;;;5060763;28;20850;-46
2021/07/10 11:01:00;;;;;;;7.90;7.17;;;24.30;61.00;;;;;;5054021;28;20552;-46
2021/07/10 11:03:39;;;;;;;8.40;7.47;;;24.20;61.10;;;;;;5060101;28;20476;-46
2021/07/10 11:06:25;;;;;;;9.17;8.17;;;24.20;61.40;;;;;;5064461;28;20449;-47
2021/07/10 11:08:52;;;;;;;7.93;7.13;;;24.20;61.20;;;;;;5062659;28;20444;-46
2021/07/10 11:11:21;;;;;;;8.17;7.33;;;24.10;60.80;;;;;;5067793;28;20947;-46
2021/07/10 11:14:02;;;;;;;7.67;6.87;;;24.10;61.30;;;;;;5089889;28;20461;-46
2021/07/10 11:16:30;;;;;;;9.90;7.70;;;24.20;61.10;;;;;;5063782;28;20460;-46
2021/07/10 11:19:04;;;;;;;9.20;7.50;;;24.10;61.40;;;;;;5065467;28;20533;-46
2021/07/10 11:21:35;;;;;;;7.53;6.73;;;24.10;61.10;;;;;;5066507;28;20520;-47
2021/07/10 11:24:20;;;;;;;7.83;7.13;;;24.10;60.30;;;;;;5063816;28;20906;-46
2021/07/10 11:27:09;;;;;;;9.47;7.20;;;24.10;60.40;;;;;;5064686;28;20537;-46
2021/07/10 11:29:41;;;;;;;10.00;7.80;;;24.20;60.50;;;;;;5063689;28;20826;-47
2021/07/10 11:32:15;;;;;;;9.90;9.00;;;24.20;60.70;;;;;;5062526;28;20510;-46
2021/07/10 11:34:46;;;;;;;9.00;8.10;;;24.20;61.00;;;;;;5061799;28;20959;-46
2021/07/10 11:37:18;;;;;;;10.00;7.97;;;24.10;61.20;;;;;;5093654;28;20950;-46
2021/07/10 11:39:45;;;;;;;8.53;7.60;;;24.10;61.40;;;;;;5061492;28;21086;-47
2021/07/10 11:42:18;;;;;;;9.93;8.40;;;24.10;61.20;;;;;;5061134;28;20805;-46
2021/07/10 11:44:49;;;;;;;7.43;6.77;;;24.10;61.30;;;;;;5060878;28;20484;-47
2021/07/10 11:47:33;;;;;;;6.80;6.10;;;24.20;61.30;;;;;;5067088;28;20449;-46
2021/07/10 11:50:02;;;;;;;6.10;5.43;;;24.10;59.80;;;;;;5059922;28;20452;-46
2021/07/10 11:52:29;;;;;;;6.60;4.80;;;24.20;59.30;;;;;;5065448;28;20455;-46
2021/07/10 11:55:04;;;;;;;6.17;5.57;;;24.30;58.60;;;;;;5062620;28;20534;-46
2021/07/10 11:57:37;;;;;;;5.60;5.20;;;24.30;57.30;;;;;;5060899;28;20459;-46
2021/07/10 12:00:07;;;;;;;6.67;6.07;;;24.40;57.70;;;;;;5050456;28;20449;-46
2021/07/10 12:02:34;;;;;;;6.37;5.77;;;24.40;57.80;;;;;;5061016;28;20462;-46
2021/07/10 12:05:10;;;;;;;5.40;4.90;;;24.40;58.30;;;;;;5063996;28;20496;-47
2021/07/10 12:07:40;;;;;;;5.63;5.13;;;24.40;58.50;;;;;;5063059;28;20514;-46
2021/07/10 12:10:10;;;;;;;6.37;5.77;;;24.40;58.00;;;;;;5063184;28;20464;-46
2021/07/10 12:13:00;;;;;;;7.17;5.23;;;24.40;58.00;;;;;;5090973;28;20463;-46
2021/07/10 12:15:30;;;;;;;5.30;4.90;;;24.40;57.30;;;;;;5062379;28;20453;-46
2021/07/10 12:18:02;;;;;;;4.47;4.07;;;24.40;56.60;;;;;;5060284;28;20509;-47
2021/07/10 12:20:32;;;;;;;3.63;3.33;;;24.40;56.60;;;;;;5063843;28;20514;-47
2021/07/10 12:23:01;;;;;;;5.00;3.40;;;24.40;54.30;;;;;;5063887;28;20816;-46
2021/07/10 12:25:42;;;;;;;4.33;2.90;;;24.50;53.30;;;;;;5063727;28;20505;-46
2021/07/10 12:28:09;;;;;;;4.90;4.50;;;24.50;54.00;;;;;;5059791;28;20469;-46
2021/07/10 12:30:50;;;;;;;3.80;3.50;;;24.50;55.00;;;;;;5059817;28;20454;-47
2021/07/10 12:33:35;;;;;;;4.83;4.43;;;24.50;55.10;;;;;;5060248;28;20488;-47
2021/07/10 12:36:31;;;;;;;4.27;3.83;;;24.50;54.80;;;;;;5086037;28;20452;-46
2021/07/10 12:39:07;;;;;;;5.20;4.70;;;24.60;55.20;;;;;;5059537;28;20488;-46